Time;durP1;ratioP1;P1;durP2;ratioP2;P2;SDS_P1;SDS_P2;PMS_P1;PMS_P2;Temp;Humidity;BMP_temperature;BMP_pressure;BME280_temperature;BME280_humidity;BME280_pressure;Samples;Min_cycle;Max_cycle;Signal;HPM_P1;HPM_P2
2024/01/28 00:01:01;;;;;;;14.10;9.60;;;;;;;;;;5011097;28;20211;-63
2024/01/28 00:03:29;;;;;;;16.93;10.03;;;;;;;;;;5009578;28;20249;-63
2024/01/28 00:05:56;;;;;;;14.57;9.83;;;;;;;;;;5010742;28;20207;-63
2024/01/28 00:08:25;;;;;;;13.60;10.10;;;;;;;;;;5009506;28;20211;-63
2024/01/28 00:10:54;;;;;;;15.47;9.73;;;;;;;;;;5007611;28;20209;-64
2024/01/28 00:13:24;;;;;;;16.93;10.40;;;;;;;;;;5008725;28;20233;-64
2024/01/28 00:15:55;;;;;;;15.57;9.63;;;;;;;;;;4994484;28;20609;-62
2024/01/28 00:18:23;;;;;;;15.40;9.87;;;;;;;;;;5008673;28;20690;-63
2024/01/28 00:20:50;;;;;;;16.17;9.80;;;;;;;;;;5008342;28;20236;-64
2024/01/28 00:23:18;;;;;;;14.53;9.63;;;;;;;;;;5008233;28;20223;-64
2024/01/28 00:25:45;;;;;;;13.83;8.73;;;;;;;;;;5007426;28;20254;-64
2024/01/28 00:28:12;;;;;;;9.70;7.90;;;;;;;;;;5010936;28;20203;-63
2024/01/28 00:30:40;;;;;;;13.70;8.23;;;;;;;;;;5007720;28;20692;-63
2024/01/28 00:33:08;;;;;;;15.70;8.27;;;;;;;;;;5009387;28;20679;-64
2024/01/28 00:35:35;;;;;;;12.63;7.80;;;;;;;;;;5006704;28;20217;-63
2024/01/28 00:38:03;;;;;;;11.70;8.40;;;;;;;;;;4993789;28;20262;-63
2024/01/28 00:40:31;;;;;;;13.53;9.90;;;;;;;;;;5011087;28;20254;-62
2024/01/28 00:42:59;;;;;;;15.80;9.40;;;;;;;;;;5008458;28;20203;-64
2024/01/28 00:45:26;;;;;;;14.67;8.57;;;;;;;;;;5009242;28;20215;-64
2024/01/28 00:47:53;;;;;;;11.63;7.93;;;;;;;;;;5003861;28;20215;-62
2024/01/28 00:50:22;;;;;;;10.97;8.00;;;;;;;;;;4988183;28;20218;-62
2024/01/28 00:52:49;;;;;;;11.53;7.63;;;;;;;;;;5024557;28;20198;-63
2024/01/28 00:55:17;;;;;;;12.33;7.47;;;;;;;;;;5005219;28;20212;-63
2024/01/28 00:57:44;;;;;;;10.83;8.10;;;;;;;;;;5012104;28;20218;-64
2024/01/28 01:00:12;;;;;;;14.63;9.87;;;;;;;;;;5005516;28;20235;-62
2024/01/28 01:02:39;;;;;;;13.40;8.77;;;;;;;;;;5006442;28;20291;-62
2024/01/28 01:05:07;;;;;;;10.77;8.17;;;;;;;;;;5008348;28;20218;-63
2024/01/28 01:07:34;;;;;;;14.73;8.90;;;;;;;;;;5004908;28;20206;-64
2024/01/28 01:10:02;;;;;;;12.13;8.47;;;;;;;;;;5008294;28;20728;-64
2024/01/28 01:12:30;;;;;;;11.33;9.60;;;;;;;;;;5020566;28;20345;-63
2024/01/28 01:14:57;;;;;;;16.33;11.63;;;;;;;;;;5007019;28;20273;-63
2024/01/28 01:17:24;;;;;;;17.63;11.07;;;;;;;;;;5006802;28;20202;-63
2024/01/28 01:19:52;;;;;;;16.23;11.20;;;;;;;;;;5006673;28;20226;-62
2024/01/28 01:22:19;;;;;;;19.47;12.20;;;;;;;;;;5002300;28;20221;-62
2024/01/28 01:24:46;;;;;;;19.83;11.60;;;;;;;;;;5006562;28;20736;-62
2024/01/28 01:27:15;;;;;;;17.07;11.10;;;;;;;;;;5002451;28;20215;-63
2024/01/28 01:29:42;;;;;;;17.57;10.37;;;;;;;;;;5009789;28;20688;-64
2024/01/28 01:32:10;;;;;;;16.87;10.57;;;;;;;;;;5005872;28;20215;-64
2024/01/28 01:34:37;;;;;;;15.63;10.60;;;;;;;;;;4990675;28;21176;-63
2024/01/28 01:37:05;;;;;;;14.43;9.97;;;;;;;;;;5007222;28;20593;-63
2024/01/28 01:39:32;;;;;;;13.17;9.23;;;;;;;;;;5011640;28;20293;-63
2024/01/28 01:42:00;;;;;;;14.73;9.47;;;;;;;;;;5017950;28;20215;-62
2024/01/28 01:44:28;;;;;;;12.20;8.73;;;;;;;;;;5010514;28;20250;-63
2024/01/28 01:46:55;;;;;;;13.57;9.47;;;;;;;;;;5002784;28;20214;-63
2024/01/28 01:49:22;;;;;;;13.57;8.83;;;;;;;;;;5002999;28;20388;-64
2024/01/28 01:51:50;;;;;;;11.07;8.43;;;;;;;;;;5008703;28;20278;-63
2024/01/28 01:54:17;;;;;;;14.10;8.67;;;;;;;;;;5009799;28;20223;-63
2024/01/28 01:56:45;;;;;;;12.07;8.93;;;;;;;;;;5007508;28;20643;-63
2024/01/28 01:59:13;;;;;;;13.97;8.70;;;;;;;;;;5007304;28;20705;-64
2024/01/28 02:01:40;;;;;;;16.20;8.77;;;;;;;;;;5001698;28;20299;-64
2024/01/28 02:04:08;;;;;;;14.10;9.33;;;;;;;;;;5003454;28;20223;-63
2024/01/28 02:06:35;;;;;;;15.83;9.83;;;;;;;;;;5008727;28;20227;-63
2024/01/28 02:09:05;;;;;;;17.07;10.00;;;;;;;;;;5005535;28;20306;-63
2024/01/28 02:11:32;;;;;;;17.33;10.03;;;;;;;;;;5009479;28;21724;-63
2024/01/28 02:13:59;;;;;;;21.73;11.13;;;;;;;;;;5005164;28;20298;-63
2024/01/28 02:16:27;;;;;;;24.07;12.37;;;;;;;;;;5006346;28;20716;-65
2024/01/28 02:18:54;;;;;;;16.47;10.20;;;;;;;;;;5005053;28;20255;-63
2024/01/28 02:21:22;;;;;;;13.03;8.27;;;;;;;;;;5006807;28;20210;-64
2024/01/28 02:23:49;;;;;;;14.60;8.93;;;;;;;;;;5005904;28;20334;-63
2024/01/28 02:26:16;;;;;;;10.57;7.80;;;;;;;;;;5003186;28;20616;-63
2024/01/28 02:28:44;;;;;;;13.13;8.17;;;;;;;;;;5009938;28;20885;-63
2024/01/28 02:31:11;;;;;;;12.50;9.00;;;;;;;;;;5006896;28;20196;-63
2024/01/28 02:33:38;;;;;;;16.47;9.87;;;;;;;;;;5019783;28;20223;-63
2024/01/28 02:36:07;;;;;;;18.60;9.77;;;;;;;;;;5009801;28;20257;-63
2024/01/28 02:38:34;;;;;;;13.47;9.47;;;;;;;;;;5014199;28;20705;-63
2024/01/28 02:41:02;;;;;;;19.73;11.07;;;;;;;;;;5005428;28;20227;-62
2024/01/28 02:43:29;;;;;;;14.87;9.30;;;;;;;;;;5002661;28;20307;-64
2024/01/28 02:45:56;;;;;;;11.60;8.87;;;;;;;;;;4997119;28;20220;-65
2024/01/28 02:48:23;;;;;;;13.33;8.57;;;;;;;;;;5000360;28;20262;-63
2024/01/28 02:50:51;;;;;;;15.50;9.20;;;;;;;;;;4995712;28;20671;-64
2024/01/28 02:53:19;;;;;;;14.13;9.77;;;;;;;;;;4996995;28;20223;-63
2024/01/28 02:55:49;;;;;;;14.30;9.47;;;;;;;;;;5000943;28;20208;-64
2024/01/28 02:58:16;;;;;;;13.33;10.00;;;;;;;;;;5012298;28;20223;-63
2024/01/28 03:00:43;;;;;;;14.17;9.90;;;;;;;;;;5015059;28;20227;-67
2024/01/28 03:03:11;;;;;;;13.17;9.57;;;;;;;;;;5002745;28;20226;-63
2024/01/28 03:05:39;;;;;;;19.33;9.80;;;;;;;;;;5006219;28;20210;-64
2024/01/28 03:08:06;;;;;;;17.00;9.43;;;;;;;;;;5010062;28;20227;-63
2024/01/28 03:10:34;;;;;;;15.30;10.40;;;;;;;;;;5001014;28;20203;-63
2024/01/28 03:13:01;;;;;;;15.20;9.93;;;;;;;;;;5002604;28;20234;-63
2024/01/28 03:15:29;;;;;;;18.03;11.13;;;;;;;;;;5036909;28;20258;-64
2024/01/28 03:17:56;;;;;;;15.80;10.00;;;;;;;;;;5024236;28;20258;-63
2024/01/28 03:20:27;;;;;;;16.53;11.30;;;;;;;;;;4989762;28;20596;-63
2024/01/28 03:22:54;;;;;;;14.43;10.37;;;;;;;;;;5000734;28;20254;-63
2024/01/28 03:25:22;;;;;;;15.73;10.00;;;;;;;;;;5001929;28;20590;-64
2024/01/28 03:27:49;;;;;;;19.30;12.50;;;;;;;;;;5006995;28;20195;-64
2024/01/28 03:30:17;;;;;;;21.57;13.00;;;;;;;;;;4998870;28;20234;-64
2024/01/28 03:32:45;;;;;;;23.50;15.40;;;;;;;;;;5008803;28;20611;-64
2024/01/28 03:35:16;;;;;;;27.77;16.20;;;;;;;;;;5006078;28;20224;-64
2024/01/28 03:37:43;;;;;;;27.57;15.67;;;;;;;;;;4987594;28;20220;-62
2024/01/28 03:40:11;;;;;;;30.83;14.77;;;;;;;;;;4999275;28;20600;-63
2024/01/28 03:42:38;;;;;;;28.60;15.83;;;;;;;;;;5007836;28;20204;-64
2024/01/28 03:45:06;;;;;;;34.30;17.23;;;;;;;;;;5005242;28;20223;-63
2024/01/28 03:47:34;;;;;;;35.63;15.87;;;;;;;;;;5018368;28;20219;-63
2024/01/28 03:50:01;;;;;;;36.53;16.50;;;;;;;;;;5005326;28;20207;-63
2024/01/28 03:52:28;;;;;;;41.67;18.40;;;;;;;;;;5002869;28;20219;-64
2024/01/28 03:54:57;;;;;;;28.20;15.80;;;;;;;;;;5006627;28;20231;-62
2024/01/28 03:57:24;;;;;;;37.90;17.07;;;;;;;;;;5003723;28;20677;-63
2024/01/28 03:59:51;;;;;;;36.83;18.80;;;;;;;;;;5003287;28;20219;-63
2024/01/28 04:02:19;;;;;;;34.93;16.20;;;;;;;;;;5005267;28;20547;-63
2024/01/28 04:04:46;;;;;;;30.23;14.87;;;;;;;;;;5005775;28;20269;-63
2024/01/28 04:07:13;;;;;;;26.90;13.73;;;;;;;;;;5001895;28;20195;-64
2024/01/28 04:09:41;;;;;;;22.50;12.37;;;;;;;;;;5005827;28;20238;-64
2024/01/28 04:12:09;;;;;;;27.90;13.70;;;;;;;;;;5005660;28;20204;-63
2024/01/28 04:14:36;;;;;;;24.60;12.07;;;;;;;;;;5008808;28;20237;-64
2024/01/28 04:17:04;;;;;;;22.20;11.77;;;;;;;;;;5009345;28;20219;-64
2024/01/28 04:19:31;;;;;;;25.20;12.23;;;;;;;;;;5003707;28;20234;-63
2024/01/28 04:21:58;;;;;;;35.30;15.87;;;;;;;;;;5004021;28;20253;-62
2024/01/28 04:24:26;;;;;;;31.07;14.37;;;;;;;;;;5004524;28;20231;-65
2024/01/28 04:26:53;;;;;;;30.07;13.90;;;;;;;;;;5004710;28;20764;-63
2024/01/28 04:29:21;;;;;;;33.13;14.63;;;;;;;;;;5003289;28;20204;-64
2024/01/28 04:31:48;;;;;;;31.97;13.87;;;;;;;;;;5008248;28;20208;-65
2024/01/28 04:34:15;;;;;;;27.27;12.03;;;;;;;;;;5003155;28;20220;-63
2024/01/28 04:36:43;;;;;;;26.60;12.60;;;;;;;;;;5004864;28;20235;-64
2024/01/28 04:39:10;;;;;;;27.87;13.43;;;;;;;;;;5003264;28;20584;-64
2024/01/28 04:41:38;;;;;;;28.10;13.37;;;;;;;;;;5010345;28;20226;-63
2024/01/28 04:44:05;;;;;;;27.50;12.73;;;;;;;;;;5006478;28;20281;-63
2024/01/28 04:46:33;;;;;;;25.00;12.40;;;;;;;;;;4999866;28;20649;-64
2024/01/28 04:49:03;;;;;;;23.30;12.27;;;;;;;;;;5005613;28;20255;-65
2024/01/28 04:51:30;;;;;;;21.87;11.23;;;;;;;;;;5008112;28;21288;-63
2024/01/28 04:53:58;;;;;;;18.70;10.60;;;;;;;;;;5006671;28;20713;-63
2024/01/28 04:56:26;;;;;;;20.40;10.33;;;;;;;;;;5000287;28;20204;-63
2024/01/28 04:58:54;;;;;;;18.73;10.00;;;;;;;;;;5004529;28;20236;-63
2024/01/28 05:01:21;;;;;;;16.47;10.33;;;;;;;;;;5005597;28;20366;-65
2024/01/28 05:03:48;;;;;;;17.70;10.10;;;;;;;;;;4997334;28;20636;-63
2024/01/28 05:06:16;;;;;;;22.80;12.43;;;;;;;;;;5005884;28;20204;-65
2024/01/28 05:08:43;;;;;;;21.23;12.00;;;;;;;;;;5005377;28;20307;-65
2024/01/28 05:11:11;;;;;;;19.47;11.60;;;;;;;;;;5008959;28;20199;-64
2024/01/28 05:13:38;;;;;;;15.27;10.43;;;;;;;;;;5007101;28;20235;-64
2024/01/28 05:16:05;;;;;;;15.03;10.03;;;;;;;;;;5010402;28;20208;-65
2024/01/28 05:18:33;;;;;;;19.40;11.13;;;;;;;;;;5004839;28;20273;-64
2024/01/28 05:21:00;;;;;;;17.67;11.50;;;;;;;;;;5004869;28;20223;-63
2024/01/28 05:23:27;;;;;;;20.20;12.07;;;;;;;;;;5004473;28;20258;-64
2024/01/28 05:25:57;;;;;;;21.13;12.00;;;;;;;;;;5011045;28;20215;-64
2024/01/28 05:28:25;;;;;;;15.87;10.87;;;;;;;;;;5009947;28;20285;-62
2024/01/28 05:30:52;;;;;;;18.53;12.53;;;;;;;;;;5003780;28;20570;-63
2024/01/28 05:33:20;;;;;;;18.57;12.83;;;;;;;;;;5019321;28;20219;-64
2024/01/28 05:35:47;;;;;;;19.93;11.50;;;;;;;;;;5008824;28;20216;-63
2024/01/28 05:38:15;;;;;;;13.27;9.33;;;;;;;;;;5014068;28;20214;-64
2024/01/28 05:40:42;;;;;;;15.43;10.37;;;;;;;;;;5012640;28;20223;-65
2024/01/28 05:43:09;;;;;;;13.40;10.20;;;;;;;;;;5013131;28;20207;-65
2024/01/28 05:45:37;;;;;;;18.80;11.13;;;;;;;;;;5009057;28;20728;-65
2024/01/28 05:48:04;;;;;;;15.40;10.07;;;;;;;;;;5006291;28;20234;-63
2024/01/28 05:50:32;;;;;;;17.30;10.67;;;;;;;;;;5001659;28;20746;-63
2024/01/28 05:52:59;;;;;;;19.50;12.33;;;;;;;;;;5002549;28;20211;-63
2024/01/28 05:55:26;;;;;;;19.57;12.77;;;;;;;;;;5009336;28;20211;-63
2024/01/28 05:57:54;;;;;;;15.63;10.80;;;;;;;;;;5010329;28;20266;-64
2024/01/28 06:00:22;;;;;;;17.50;10.00;;;;;;;;;;5034934;28;20222;-63
2024/01/28 06:02:49;;;;;;;11.93;8.70;;;;;;;;;;5018323;28;20218;-64
2024/01/28 06:05:16;;;;;;;15.57;8.93;;;;;;;;;;5002657;28;20228;-64
2024/01/28 06:07:44;;;;;;;10.27;8.00;;;;;;;;;;5002381;28;20206;-64
2024/01/28 06:10:12;;;;;;;9.80;7.90;;;;;;;;;;5010272;28;20965;-64
2024/01/28 06:12:39;;;;;;;9.97;8.20;;;;;;;;;;5000686;28;20207;-65
2024/01/28 06:15:08;;;;;;;12.13;8.07;;;;;;;;;;4995719;28;21486;-64
2024/01/28 06:17:38;;;;;;;10.73;7.90;;;;;;;;;;5002034;28;20215;-64
2024/01/28 06:20:07;;;;;;;11.73;8.10;;;;;;;;;;5004281;28;20215;-63
2024/01/28 06:22:34;;;;;;;12.00;8.73;;;;;;;;;;5001608;28;21583;-64
2024/01/28 06:25:02;;;;;;;13.53;8.57;;;;;;;;;;5004846;28;20709;-64
2024/01/28 06:27:30;;;;;;;14.13;9.07;;;;;;;;;;5003105;28;22669;-63
2024/01/28 06:29:57;;;;;;;12.63;9.27;;;;;;;;;;4986592;28;20588;-64
2024/01/28 06:32:25;;;;;;;15.20;9.57;;;;;;;;;;5005864;28;20293;-65
2024/01/28 06:34:52;;;;;;;13.33;9.00;;;;;;;;;;5006708;28;20269;-66
2024/01/28 06:37:20;;;;;;;14.20;9.47;;;;;;;;;;5013252;28;20209;-63
2024/01/28 06:39:51;;;;;;;16.23;10.70;;;;;;;;;;5004136;28;20234;-63
2024/01/28 06:42:19;;;;;;;13.47;10.07;;;;;;;;;;4993763;28;20227;-63
2024/01/28 06:44:47;;;;;;;18.03;11.77;;;;;;;;;;5007984;28;20235;-65
2024/01/28 06:47:15;;;;;;;21.07;14.10;;;;;;;;;;5017576;28;20215;-63
2024/01/28 06:49:43;;;;;;;21.13;14.33;;;;;;;;;;5005263;28;20688;-63
2024/01/28 06:52:11;;;;;;;30.13;16.63;;;;;;;;;;5009407;28;20200;-63
2024/01/28 06:54:42;;;;;;;38.30;19.37;;;;;;;;;;5002171;28;20606;-65
2024/01/28 06:57:13;;;;;;;36.17;21.10;;;;;;;;;;4999374;28;20199;-65
2024/01/28 06:59:42;;;;;;;40.67;25.77;;;;;;;;;;5004977;28;20261;-62
2024/01/28 07:02:11;;;;;;;40.67;24.13;;;;;;;;;;5009201;28;20695;-62
2024/01/28 07:04:38;;;;;;;26.40;17.97;;;;;;;;;;5006157;28;20232;-64
2024/01/28 07:07:06;;;;;;;22.10;15.70;;;;;;;;;;5003020;28;20211;-63
2024/01/28 07:09:33;;;;;;;24.50;16.57;;;;;;;;;;5004234;28;20294;-63
2024/01/28 07:12:00;;;;;;;22.00;16.33;;;;;;;;;;5006765;28;20210;-65
2024/01/28 07:14:28;;;;;;;27.80;18.03;;;;;;;;;;4999731;28;20648;-63
2024/01/28 07:16:55;;;;;;;28.37;19.60;;;;;;;;;;4990689;28;20315;-63
2024/01/28 07:19:22;;;;;;;29.43;19.03;;;;;;;;;;5009051;28;20253;-62
2024/01/28 07:21:51;;;;;;;32.10;19.53;;;;;;;;;;5003681;28;21002;-64
2024/01/28 07:24:19;;;;;;;27.60;19.23;;;;;;;;;;5009717;28;20230;-63
2024/01/28 07:26:50;;;;;;;25.53;18.83;;;;;;;;;;5020867;28;20211;-64
2024/01/28 07:29:17;;;;;;;26.50;18.03;;;;;;;;;;5006987;28;20708;-63
2024/01/28 07:31:44;;;;;;;26.03;17.20;;;;;;;;;;5010315;28;20264;-63
2024/01/28 07:34:12;;;;;;;17.83;14.40;;;;;;;;;;5005639;28;20638;-65
2024/01/28 07:36:39;;;;;;;18.53;14.07;;;;;;;;;;5008014;28;20199;-63
2024/01/28 07:39:07;;;;;;;18.23;13.73;;;;;;;;;;5010253;28;20282;-64
2024/01/28 07:41:35;;;;;;;14.83;12.13;;;;;;;;;;5009052;28;20661;-64
2024/01/28 07:44:03;;;;;;;14.73;11.57;;;;;;;;;;5001775;28;21377;-64
2024/01/28 07:46:32;;;;;;;15.90;12.10;;;;;;;;;;5003429;28;20216;-62
2024/01/28 07:48:59;;;;;;;14.00;11.50;;;;;;;;;;4994756;28;20197;-63
2024/01/28 07:51:27;;;;;;;14.57;11.67;;;;;;;;;;5015051;28;20218;-62
2024/01/28 07:53:54;;;;;;;17.50;12.53;;;;;;;;;;5000946;28;20235;-64
2024/01/28 07:56:22;;;;;;;21.27;15.27;;;;;;;;;;5002347;28;20261;-64
2024/01/28 07:58:49;;;;;;;21.20;14.83;;;;;;;;;;5009532;28;20222;-64
2024/01/28 08:01:16;;;;;;;25.90;15.47;;;;;;;;;;4998276;28;20323;-63
2024/01/28 08:03:43;;;;;;;18.33;12.20;;;;;;;;;;5000240;28;20231;-63
2024/01/28 08:06:12;;;;;;;15.10;11.53;;;;;;;;;;5001150;28;20207;-63
2024/01/28 08:08:40;;;;;;;20.27;12.00;;;;;;;;;;4986737;28;20196;-63
2024/01/28 08:11:07;;;;;;;16.13;11.43;;;;;;;;;;5006337;28;20207;-62
2024/01/28 08:13:34;;;;;;;19.43;12.30;;;;;;;;;;5015440;28;20223;-62
2024/01/28 08:16:03;;;;;;;17.93;11.70;;;;;;;;;;4999231;28;20273;-64
2024/01/28 08:18:30;;;;;;;15.63;10.90;;;;;;;;;;5003750;28;20211;-63
2024/01/28 08:20:58;;;;;;;19.23;11.60;;;;;;;;;;5006822;28;20311;-64
2024/01/28 08:23:29;;;;;;;15.27;11.53;;;;;;;;;;5004612;28;20286;-63
2024/01/28 08:25:56;;;;;;;14.67;11.63;;;;;;;;;;5006472;28;20269;-63
2024/01/28 08:28:24;;;;;;;15.90;12.00;;;;;;;;;;5000948;28;20242;-64
2024/01/28 08:30:56;;;;;;;14.60;11.43;;;;;;;;;;4986896;28;20262;-62
2024/01/28 08:33:24;;;;;;;16.00;11.40;;;;;;;;;;4997644;28;20325;-62
2024/01/28 08:35:52;;;;;;;17.40;12.60;;;;;;;;;;5003393;28;20204;-64
2024/01/28 08:38:19;;;;;;;20.17;14.10;;;;;;;;;;4984610;28;20757;-62
2024/01/28 08:40:46;;;;;;;16.83;11.80;;;;;;;;;;4983227;28;20237;-62
2024/01/28 08:43:13;;;;;;;19.43;13.07;;;;;;;;;;4993360;28;20222;-63
2024/01/28 08:45:43;;;;;;;15.47;11.43;;;;;;;;;;4985774;28;20850;-65
2024/01/28 08:48:10;;;;;;;19.50;11.70;;;;;;;;;;4983754;28;20211;-65
2024/01/28 08:50:38;;;;;;;15.77;11.33;;;;;;;;;;4991440;28;20548;-64
2024/01/28 08:53:05;;;;;;;18.37;11.50;;;;;;;;;;4996146;28;20199;-63
2024/01/28 08:55:33;;;;;;;16.03;10.97;;;;;;;;;;4994701;28;20212;-63
2024/01/28 08:58:00;;;;;;;13.63;10.80;;;;;;;;;;5009556;28;20208;-65
2024/01/28 09:00:28;;;;;;;18.17;10.60;;;;;;;;;;5017111;28;20279;-65
2024/01/28 09:02:55;;;;;;;15.60;12.43;;;;;;;;;;4986637;28;20262;-63
2024/01/28 09:05:22;;;;;;;13.70;10.97;;;;;;;;;;4997477;28;20250;-63
2024/01/28 09:07:51;;;;;;;16.10;11.10;;;;;;;;;;5003081;28;20203;-64
2024/01/28 09:10:19;;;;;;;16.80;11.13;;;;;;;;;;4996367;28;20311;-64
2024/01/28 09:12:46;;;;;;;13.37;9.87;;;;;;;;;;4995710;28;20204;-64
2024/01/28 09:15:14;;;;;;;15.83;9.47;;;;;;;;;;5001537;28;20245;-65
2024/01/28 09:17:42;;;;;;;14.30;9.83;;;;;;;;;;5000862;28;20211;-65
2024/01/28 09:20:09;;;;;;;11.00;8.97;;;;;;;;;;4996603;28;21243;-64
2024/01/28 09:22:37;;;;;;;12.83;8.67;;;;;;;;;;5009839;28;20232;-64
2024/01/28 09:25:05;;;;;;;14.40;9.63;;;;;;;;;;5012000;28;20232;-64
2024/01/28 09:27:32;;;;;;;13.37;8.60;;;;;;;;;;4999259;28;20208;-63
2024/01/28 09:30:00;;;;;;;11.43;8.43;;;;;;;;;;5004540;28;20199;-64
2024/01/28 09:32:30;;;;;;;12.10;9.00;;;;;;;;;;5004042;28;21897;-63
2024/01/28 09:34:58;;;;;;;9.60;8.17;;;;;;;;;;5003818;28;20234;-65
2024/01/28 09:37:26;;;;;;;10.03;7.30;;;;;;;;;;5017506;28;20255;-63
2024/01/28 09:39:53;;;;;;;10.97;7.30;;;;;;;;;;5013856;28;20203;-63
2024/01/28 09:42:37;;;;;;;8.20;6.47;;;;;;;;;;5000940;28;20237;-63
2024/01/28 09:45:06;;;;;;;6.90;6.20;;;;;;;;;;5002107;28;20224;-63
2024/01/28 09:47:35;;;;;;;7.60;5.90;;;;;;;;;;5001470;28;20228;-63
2024/01/28 09:50:04;;;;;;;6.37;5.70;;;;;;;;;;4996891;28;20203;-63
2024/01/28 09:52:31;;;;;;;7.20;5.97;;;;;;;;;;5022746;28;20212;-62
2024/01/28 09:54:59;;;;;;;8.90;7.00;;;;;;;;;;5013834;28;20243;-64
2024/01/28 09:57:26;;;;;;;8.60;6.50;;;;;;;;;;5003349;28;20212;-63
2024/01/28 09:59:54;;;;;;;9.87;6.20;;;;;;;;;;5002481;28;22054;-63
2024/01/28 10:02:22;;;;;;;6.63;5.90;;;;;;;;;;4997451;28;20704;-63
2024/01/28 10:04:50;;;;;;;7.60;6.10;;;;;;;;;;5009843;28;20282;-63
2024/01/28 10:07:18;;;;;;;9.80;7.27;;;;;;;;;;4997419;28;20203;-63
2024/01/28 10:09:45;;;;;;;8.90;7.10;;;;;;;;;;4995558;28;20837;-64
2024/01/28 10:12:13;;;;;;;6.13;5.53;;;;;;;;;;5001598;28;20234;-66
2024/01/28 10:14:40;;;;;;;7.67;6.57;;;;;;;;;;4997577;28;20769;-64
2024/01/28 10:17:07;;;;;;;9.07;7.10;;;;;;;;;;5013429;28;20246;-65
2024/01/28 10:19:35;;;;;;;7.17;5.20;;;;;;;;;;5016391;28;20235;-64
2024/01/28 10:22:04;;;;;;;5.53;4.80;;;;;;;;;;5001453;28;20259;-64
2024/01/28 10:24:32;;;;;;;5.13;4.63;;;;;;;;;;5001017;28;20258;-64
2024/01/28 10:26:59;;;;;;;4.93;4.43;;;;;;;;;;4996791;28;20286;-63
2024/01/28 10:29:28;;;;;;;5.30;4.63;;;;;;;;;;4981976;28;20200;-66
2024/01/28 10:32:01;;;;;;;6.17;4.73;;;;;;;;;;4996161;28;20774;-65
2024/01/28 10:34:28;;;;;;;6.37;5.43;;;;;;;;;;4994520;28;20258;-63
2024/01/28 10:36:57;;;;;;;6.27;5.67;;;;;;;;;;4984971;28;20200;-64
2024/01/28 10:39:25;;;;;;;7.07;5.70;;;;;;;;;;4977822;28;20211;-65
2024/01/28 10:41:56;;;;;;;12.20;8.47;;;;;;;;;;4979562;28;20234;-64
2024/01/28 10:44:24;;;;;;;9.33;6.57;;;;;;;;;;4994410;28;20736;-65
2024/01/28 10:46:54;;;;;;;7.23;6.20;;;;;;;;;;4996027;28;20227;-63
2024/01/28 10:49:27;;;;;;;8.13;6.00;;;;;;;;;;4997089;28;20227;-63
2024/01/28 10:51:57;;;;;;;7.93;5.40;;;;;;;;;;4995563;28;20204;-63
2024/01/28 10:54:25;;;;;;;5.33;4.70;;;;;;;;;;4993115;28;20239;-65
2024/01/28 10:56:54;;;;;;;5.80;4.70;;;;;;;;;;4995877;28;20210;-65
2024/01/28 10:59:21;;;;;;;5.67;4.90;;;;;;;;;;5000799;28;20212;-64
2024/01/28 11:01:49;;;;;;;5.67;5.10;;;;;;;;;;4995239;28;20220;-64
2024/01/28 11:04:16;;;;;;;6.70;5.13;;;;;;;;;;5002733;28;20254;-66
2024/01/28 11:06:46;;;;;;;5.00;4.33;;;;;;;;;;4998756;28;20214;-65
2024/01/28 11:09:13;;;;;;;4.93;3.87;;;;;;;;;;5001586;28;20207;-65
2024/01/28 11:11:41;;;;;;;3.83;3.43;;;;;;;;;;4998293;28;20294;-64
2024/01/28 11:14:08;;;;;;;4.23;3.80;;;;;;;;;;4997561;28;20219;-64
2024/01/28 11:16:37;;;;;;;5.40;4.20;;;;;;;;;;5001217;28;21000;-65
2024/01/28 11:19:10;;;;;;;6.00;4.07;;;;;;;;;;4999280;28;20319;-65
2024/01/28 11:21:38;;;;;;;6.87;5.70;;;;;;;;;;4999559;28;20631;-64
2024/01/28 11:24:06;;;;;;;6.60;4.93;;;;;;;;;;4995127;28;20709;-64
2024/01/28 11:26:37;;;;;;;5.07;3.97;;;;;;;;;;4996114;28;20214;-64
2024/01/28 11:29:10;;;;;;;4.70;3.63;;;;;;;;;;4993507;28;20673;-66
2024/01/28 11:31:41;;;;;;;5.30;4.30;;;;;;;;;;4998122;28;20588;-64
2024/01/28 11:34:19;;;;;;;4.07;3.60;;;;;;;;;;5004974;28;20663;-64
2024/01/28 11:36:48;;;;;;;4.10;3.40;;;;;;;;;;5001305;28;20203;-64
2024/01/28 11:39:16;;;;;;;5.73;3.97;;;;;;;;;;4997089;28;20694;-64
2024/01/28 11:41:47;;;;;;;11.60;5.47;;;;;;;;;;4998501;28;20231;-64
2024/01/28 11:44:15;;;;;;;9.10;5.30;;;;;;;;;;4995957;28;20219;-65
2024/01/28 11:46:44;;;;;;;5.30;4.30;;;;;;;;;;4997248;28;20208;-65
2024/01/28 11:49:11;;;;;;;4.53;3.80;;;;;;;;;;4999348;28;20207;-65
2024/01/28 11:51:39;;;;;;;5.23;3.50;;;;;;;;;;5004305;28;20212;-65
2024/01/28 11:54:07;;;;;;;4.00;3.40;;;;;;;;;;5004987;28;20285;-64
2024/01/28 11:56:35;;;;;;;4.10;3.80;;;;;;;;;;4997508;28;20269;-64
2024/01/28 11:59:03;;;;;;;4.30;4.00;;;;;;;;;;5005011;28;20215;-64
2024/01/28 12:01:30;;;;;;;4.27;3.87;;;;;;;;;;5001308;28;20208;-64
2024/01/28 12:03:58;;;;;;;3.63;3.20;;;;;;;;;;5003500;28;20580;-65
2024/01/28 12:06:28;;;;;;;4.73;4.20;;;;;;;;;;5013249;28;20230;-64
2024/01/28 12:08:57;;;;;;;3.50;3.20;;;;;;;;;;5005393;28;20207;-64
2024/01/28 12:11:25;;;;;;;3.27;2.87;;;;;;;;;;5020237;28;20208;-64
2024/01/28 12:13:52;;;;;;;4.10;3.00;;;;;;;;;;5004621;28;20215;-64
2024/01/28 12:16:21;;;;;;;2.55;2.35;;;;;;;;;;4998168;28;20506;-63
2024/01/28 12:18:49;;;;;;;2.95;2.72;;;;;;;;;;4976491;28;20294;-63
2024/01/28 12:21:27;;;;;;;4.38;3.63;;;;;;;;;;5006734;28;20213;-64
2024/01/28 12:24:04;;;;;;;4.30;3.80;;;;;;;;;;5002860;28;20234;-65
2024/01/28 12:26:32;;;;;;;3.13;2.80;;;;;;;;;;5006548;28;20203;-63
2024/01/28 12:29:02;;;;;;;3.35;3.05;;;;;;;;;;4997901;28;20204;-64
2024/01/28 12:31:30;;;;;;;2.75;2.40;;;;;;;;;;5000975;28;20605;-65
2024/01/28 12:33:58;;;;;;;3.40;2.50;;;;;;;;;;4994348;28;20495;-63
2024/01/28 12:36:26;;;;;;;2.60;2.40;;;;;;;;;;4997432;28;20210;-64
2024/01/28 12:38:53;;;;;;;7.78;5.15;;;;;;;;;;5003282;28;20800;-65
2024/01/28 12:41:21;;;;;;;2.67;2.47;;;;;;;;;;4997533;28;20699;-64
2024/01/28 12:43:48;;;;;;;1.98;1.83;;;;;;;;;;4989078;28;20231;-65
2024/01/28 12:46:20;;;;;;;3.67;1.95;;;;;;;;;;5001529;28;20199;-64
2024/01/28 12:48:47;;;;;;;2.17;1.98;;;;;;;;;;4996098;28;20211;-64
2024/01/28 12:51:15;;;;;;;2.95;1.90;;;;;;;;;;4992636;28;20274;-64
2024/01/28 12:53:43;;;;;;;2.40;2.20;;;;;;;;;;4998772;28;20237;-64
2024/01/28 12:56:11;;;;;;;3.05;2.85;;;;;;;;;;4999183;28;20625;-63
2024/01/28 12:58:38;;;;;;;3.30;3.00;;;;;;;;;;4999390;28;20213;-64
2024/01/28 13:01:06;;;;;;;3.13;2.25;;;;;;;;;;5000517;28;20313;-62
2024/01/28 13:03:36;;;;;;;2.40;2.00;;;;;;;;;;5001115;28;20621;-63
2024/01/28 13:06:05;;;;;;;2.33;1.98;;;;;;;;;;4999308;28;20199;-63
2024/01/28 13:08:32;;;;;;;2.83;1.90;;;;;;;;;;4998738;28;20210;-64
2024/01/28 13:11:02;;;;;;;2.00;1.83;;;;;;;;;;4982144;28;20218;-63
2024/01/28 13:13:31;;;;;;;2.22;2.03;;;;;;;;;;5002221;28;20237;-63
2024/01/28 13:15:58;;;;;;;2.15;2.00;;;;;;;;;;5005588;28;20234;-65
2024/01/28 13:18:26;;;;;;;2.78;2.38;;;;;;;;;;4992346;28;20716;-63
2024/01/28 13:21:02;;;;;;;3.78;2.42;;;;;;;;;;4996897;28;20303;-65
2024/01/28 13:23:29;;;;;;;2.13;2.00;;;;;;;;;;4990884;28;20363;-64
2024/01/28 13:25:56;;;;;;;4.57;2.20;;;;;;;;;;4999817;28;20204;-64
2024/01/28 13:28:24;;;;;;;2.22;2.13;;;;;;;;;;4998380;28;20659;-65
2024/01/28 13:30:51;;;;;;;2.13;2.00;;;;;;;;;;5006952;28;20295;-64
2024/01/28 13:33:19;;;;;;;2.40;2.17;;;;;;;;;;4999523;28;20313;-65
2024/01/28 13:35:46;;;;;;;3.07;2.30;;;;;;;;;;4993013;28;20222;-63
2024/01/28 13:38:13;;;;;;;2.27;2.10;;;;;;;;;;5004286;28;20216;-64
2024/01/28 13:40:42;;;;;;;4.13;2.30;;;;;;;;;;5010090;28;20234;-64
2024/01/28 13:43:09;;;;;;;2.20;2.00;;;;;;;;;;5000385;28;20706;-64
2024/01/28 13:45:36;;;;;;;2.33;2.10;;;;;;;;;;5007595;28;20235;-64
2024/01/28 13:48:05;;;;;;;3.08;1.92;;;;;;;;;;4998340;28;20196;-64
2024/01/28 13:50:32;;;;;;;2.10;1.87;;;;;;;;;;5000247;28;20211;-63
2024/01/28 13:53:00;;;;;;;2.75;2.10;;;;;;;;;;4997050;28;20227;-63
2024/01/28 13:55:27;;;;;;;2.30;2.05;;;;;;;;;;4995607;28;20208;-63
2024/01/28 13:57:55;;;;;;;2.95;2.38;;;;;;;;;;5010985;28;20370;-64
2024/01/28 14:00:22;;;;;;;2.83;2.28;;;;;;;;;;5000958;28;20211;-65
2024/01/28 14:02:49;;;;;;;2.28;2.10;;;;;;;;;;5005857;28;20231;-63
2024/01/28 14:05:17;;;;;;;2.10;1.90;;;;;;;;;;4997247;28;20876;-63
2024/01/28 14:07:44;;;;;;;3.33;2.50;;;;;;;;;;5002419;28;20625;-65
2024/01/28 14:10:12;;;;;;;2.53;2.33;;;;;;;;;;4985067;28;20212;-64
2024/01/28 14:12:40;;;;;;;2.58;2.38;;;;;;;;;;4994787;28;20204;-66
2024/01/28 14:15:08;;;;;;;2.22;2.03;;;;;;;;;;4999744;28;20231;-64
2024/01/28 14:17:36;;;;;;;2.65;2.45;;;;;;;;;;4992826;28;20215;-64
2024/01/28 14:20:04;;;;;;;2.65;2.20;;;;;;;;;;4994791;28;20298;-64
2024/01/28 14:22:32;;;;;;;2.30;2.10;;;;;;;;;;4995538;28;21573;-63
2024/01/28 14:24:59;;;;;;;2.60;2.40;;;;;;;;;;4992828;28;20352;-63
2024/01/28 14:27:27;;;;;;;2.65;2.40;;;;;;;;;;4995057;28;20283;-65
2024/01/28 14:29:54;;;;;;;2.95;2.75;;;;;;;;;;4997043;28;20218;-64
2024/01/28 14:32:21;;;;;;;2.30;2.10;;;;;;;;;;5000744;28;20211;-64